AIRPORT ID: KHMY

DATE: 2024-07-20 ZULU TIME: 13.55 LOCAL TIME: 8.55


METAR KHMY 201355Z AUTO 00000KT 10SM 21/19 A3011

ALTIMETER: A3011 Q1020

DENSITY ALT: 1800 Ft

WIND DIRECT: 340

WIND SPEED: 0 Gust

WIND CONDITIONS:

VISIBILTY: 10SM 9999M

TEMPERATURE: 70 F 21 C

DEW POINT: 66 F 19 C

HUMID: 88%

LCL: 1,000-3,000 feet

RADIO CHECK: 0

ADVISARIES: 0

GREETINGS: 0

CONVERSATIONS: 0